WMT3639 LIMF-LATI
Flight info
| Callsign | WMT3639 |
|---|---|
| Flight time | 1h 25m |
| Altitude | 37000 |
| Route | TESTO DCT GEN DCT KALMO DCT MIVKI DCT BEROK DCT OSMOX DCT ERDON DCT KOFER DCT PETAK |
| Aircraft | A320/M-SDE3FGHIRWY/LB1 |
Departure
| Time | 2026-04-28 14:14 |
|---|---|
| Airport | Turin Airport (LIMF) |
Arrival
| Time | 2026-04-28 15:39 |
|---|---|
| Airport | Tirana International Airport Mother Teresa (LATI) |
| Time | Latitude | Longitude | Altitude | Speed | Heading |
|---|---|---|---|---|---|
| 2026-04-28 14:12 | 45.19050 | 7.64654 | 986 ft | 15 kts | 183° |
| 2026-04-28 14:12 | 45.18942 | 7.64646 | 992 ft | 16 kts | 182° |
| 2026-04-28 14:12 | 45.18823 | 7.64639 | 988 ft | 18 kts | 183° |
| 2026-04-28 14:13 | 45.18692 | 7.64632 | 985 ft | 20 kts | 177° |
| 2026-04-28 14:13 | 45.18617 | 7.64772 | 982 ft | 21 kts | 81° |
| 2026-04-28 14:13 | 45.18774 | 7.64868 | 986 ft | 41 kts | 4° |
| 2026-04-28 14:13 | 45.19281 | 7.64913 | 987 ft | 102 kts | 2° |
| 2026-04-28 14:14 | 45.20155 | 7.64967 | 986 ft | 147 kts | 2° |
| 2026-04-28 14:14 | 45.21244 | 7.65053 | 1370 ft | 156 kts | 4° |
| 2026-04-28 14:14 | 45.22324 | 7.65143 | 2000 ft | 155 kts | 5° |
| 2026-04-28 14:14 | 45.23432 | 7.65234 | 2368 ft | 172 kts | 5° |
| 2026-04-28 14:15 | 45.24727 | 7.65335 | 2610 ft | 198 kts | 4° |
| 2026-04-28 14:15 | 45.26130 | 7.65553 | 3141 ft | 210 kts | 14° |
| 2026-04-28 14:15 | 45.27494 | 7.66545 | 3547 ft | 231 kts | 49° |
| 2026-04-28 14:15 | 45.28170 | 7.68680 | 3929 ft | 253 kts | 86° |
| 2026-04-28 14:16 | 45.27852 | 7.71177 | 4610 ft | 264 kts | 110° |
| 2026-04-28 14:16 | 45.27119 | 7.73598 | 5465 ft | 269 kts | 114° |
| 2026-04-28 14:16 | 45.26343 | 7.76028 | 6337 ft | 272 kts | 115° |
| 2026-04-28 14:16 | 45.25554 | 7.78490 | 7145 ft | 276 kts | 115° |
| 2026-04-28 14:17 | 45.24608 | 7.80880 | 7925 ft | 280 kts | 127° |
| 2026-04-28 14:17 | 45.23442 | 7.83111 | 8741 ft | 284 kts | 127° |
| 2026-04-28 14:17 | 45.22295 | 7.85409 | 9565 ft | 287 kts | 126° |
| 2026-04-28 14:17 | 45.21149 | 7.87748 | 10287 ft | 292 kts | 126° |
| 2026-04-28 14:18 | 45.19943 | 7.90207 | 10537 ft | 315 kts | 126° |
| 2026-04-28 14:18 | 45.18647 | 7.92833 | 10797 ft | 334 kts | 126° |
| 2026-04-28 14:18 | 45.17269 | 7.95524 | 11339 ft | 340 kts | 132° |
| 2026-04-28 14:18 | 45.15566 | 7.97850 | 11973 ft | 342 kts | 145° |
| 2026-04-28 14:19 | 45.13528 | 7.99588 | 12628 ft | 343 kts | 158° |
| 2026-04-28 14:19 | 45.11262 | 8.00649 | 13282 ft | 344 kts | 169° |
| 2026-04-28 14:19 | 45.08916 | 8.01393 | 13929 ft | 347 kts | 169° |
| 2026-04-28 14:19 | 45.06551 | 8.02146 | 14495 ft | 351 kts | 170° |
| 2026-04-28 14:20 | 45.04160 | 8.02909 | 15077 ft | 354 kts | 170° |
| 2026-04-28 14:20 | 45.01740 | 8.03683 | 15641 ft | 358 kts | 170° |
| 2026-04-28 14:20 | 44.99301 | 8.04467 | 16174 ft | 361 kts | 170° |
| 2026-04-28 14:20 | 44.96843 | 8.05256 | 16739 ft | 364 kts | 170° |
| 2026-04-28 14:21 | 44.94356 | 8.06053 | 17271 ft | 368 kts | 171° |
| 2026-04-28 14:21 | 44.91850 | 8.06855 | 17827 ft | 372 kts | 171° |
| 2026-04-28 14:21 | 44.89313 | 8.07666 | 18358 ft | 375 kts | 171° |
| 2026-04-28 14:21 | 44.86777 | 8.08638 | 18844 ft | 382 kts | 162° |
| 2026-04-28 14:22 | 44.84381 | 8.10331 | 19340 ft | 390 kts | 150° |
| 2026-04-28 14:22 | 44.82258 | 8.12763 | 19845 ft | 398 kts | 137° |
| 2026-04-28 14:22 | 44.80539 | 8.15849 | 20338 ft | 405 kts | 123° |
| 2026-04-28 14:22 | 44.79136 | 8.19307 | 20824 ft | 408 kts | 122° |
| 2026-04-28 14:23 | 44.77707 | 8.22840 | 21304 ft | 411 kts | 122° |
| 2026-04-28 14:23 | 44.76281 | 8.26336 | 21771 ft | 413 kts | 122° |
| 2026-04-28 14:23 | 44.74843 | 8.29850 | 22214 ft | 416 kts | 122° |
| 2026-04-28 14:23 | 44.73390 | 8.33394 | 22690 ft | 419 kts | 122° |
| 2026-04-28 14:24 | 44.71924 | 8.36953 | 23124 ft | 422 kts | 122° |
| 2026-04-28 14:24 | 44.70450 | 8.40532 | 23571 ft | 425 kts | 122° |
| 2026-04-28 14:24 | 44.68968 | 8.44134 | 23940 ft | 427 kts | 122° |
| 2026-04-28 14:24 | 44.67476 | 8.47766 | 24310 ft | 430 kts | 122° |
| 2026-04-28 14:25 | 44.65981 | 8.51404 | 24675 ft | 432 kts | 122° |
| 2026-04-28 14:25 | 44.64470 | 8.55075 | 25046 ft | 435 kts | 122° |
| 2026-04-28 14:25 | 44.62951 | 8.58756 | 25398 ft | 437 kts | 122° |
| 2026-04-28 14:25 | 44.61416 | 8.62464 | 25758 ft | 440 kts | 122° |
| 2026-04-28 14:26 | 44.59878 | 8.66172 | 26106 ft | 442 kts | 122° |
| 2026-04-28 14:26 | 44.58325 | 8.69925 | 26460 ft | 445 kts | 122° |
| 2026-04-28 14:26 | 44.56771 | 8.73697 | 26805 ft | 447 kts | 122° |
| 2026-04-28 14:26 | 44.55213 | 8.77483 | 27131 ft | 450 kts | 122° |
| 2026-04-28 14:27 | 44.53647 | 8.81288 | 27482 ft | 452 kts | 122° |
| 2026-04-28 14:27 | 44.52071 | 8.85112 | 27814 ft | 455 kts | 122° |
| 2026-04-28 14:27 | 44.50483 | 8.88951 | 28136 ft | 457 kts | 122° |
| 2026-04-28 14:27 | 44.48876 | 8.92818 | 28495 ft | 460 kts | 122° |
| 2026-04-28 14:28 | 44.47258 | 8.96695 | 28852 ft | 462 kts | 122° |
| 2026-04-28 14:28 | 44.45631 | 9.00584 | 29200 ft | 465 kts | 122° |
| 2026-04-28 14:28 | 44.43999 | 9.04491 | 29542 ft | 467 kts | 122° |
| 2026-04-28 14:28 | 44.42533 | 9.08578 | 29855 ft | 471 kts | 113° |
| 2026-04-28 14:29 | 44.41500 | 9.12918 | 30261 ft | 471 kts | 106° |
| 2026-04-28 14:29 | 44.40627 | 9.17335 | 30668 ft | 470 kts | 106° |
| 2026-04-28 14:29 | 44.39756 | 9.21740 | 31073 ft | 470 kts | 106° |
| 2026-04-28 14:29 | 44.38884 | 9.26134 | 31453 ft | 470 kts | 106° |
| 2026-04-28 14:30 | 44.38007 | 9.30533 | 31829 ft | 469 kts | 106° |
| 2026-04-28 14:30 | 44.37127 | 9.34923 | 32246 ft | 469 kts | 106° |
| 2026-04-28 14:30 | 44.36244 | 9.39304 | 32667 ft | 468 kts | 106° |
| 2026-04-28 14:30 | 44.35348 | 9.43735 | 33058 ft | 468 kts | 107° |
| 2026-04-28 14:31 | 44.34464 | 9.48103 | 33416 ft | 468 kts | 107° |
| 2026-04-28 14:31 | 44.33579 | 9.52473 | 33813 ft | 467 kts | 107° |
| 2026-04-28 14:31 | 44.32694 | 9.56834 | 34167 ft | 467 kts | 107° |
| 2026-04-28 14:31 | 44.31808 | 9.61189 | 34492 ft | 466 kts | 107° |
| 2026-04-28 14:32 | 44.30923 | 9.65542 | 34803 ft | 466 kts | 106° |
| 2026-04-28 14:32 | 44.30037 | 9.69893 | 35088 ft | 466 kts | 106° |
| 2026-04-28 14:32 | 44.29147 | 9.74256 | 35363 ft | 466 kts | 106° |
| 2026-04-28 14:32 | 44.28262 | 9.78596 | 35665 ft | 466 kts | 106° |
| 2026-04-28 14:33 | 44.27378 | 9.82927 | 35967 ft | 465 kts | 106° |
| 2026-04-28 14:33 | 44.26485 | 9.87285 | 36243 ft | 465 kts | 106° |
| 2026-04-28 14:33 | 44.25597 | 9.91605 | 36500 ft | 464 kts | 106° |
| 2026-04-28 14:33 | 44.24704 | 9.95943 | 36768 ft | 464 kts | 106° |
| 2026-04-28 14:34 | 44.22920 | 10.04607 | 37063 ft | 468 kts | 105° |
| 2026-04-28 14:34 | 44.22017 | 10.08989 | 37061 ft | 472 kts | 106° |
| 2026-04-28 14:35 | 44.20193 | 10.17803 | 37072 ft | 474 kts | 106° |
| 2026-04-28 14:35 | 44.18352 | 10.26618 | 37086 ft | 474 kts | 106° |
| 2026-04-28 14:36 | 44.16052 | 10.35192 | 37108 ft | 473 kts | 120° |
| 2026-04-28 14:36 | 44.12240 | 10.42612 | 37131 ft | 471 kts | 130° |
| 2026-04-28 14:37 | 44.08106 | 10.49701 | 37145 ft | 472 kts | 130° |
| 2026-04-28 14:37 | 44.03937 | 10.56860 | 37147 ft | 473 kts | 130° |
| 2026-04-28 14:38 | 43.99824 | 10.63910 | 37140 ft | 473 kts | 130° |
| 2026-04-28 14:38 | 43.95650 | 10.71045 | 37123 ft | 473 kts | 130° |
| 2026-04-28 14:39 | 43.91489 | 10.78116 | 37090 ft | 473 kts | 131° |
| 2026-04-28 14:39 | 43.87324 | 10.85190 | 37065 ft | 473 kts | 130° |
| 2026-04-28 14:40 | 43.83601 | 10.92690 | 37051 ft | 475 kts | 116° |
| 2026-04-28 14:40 | 43.81297 | 11.01239 | 37045 ft | 474 kts | 108° |
| 2026-04-28 14:41 | 43.79186 | 11.09898 | 37048 ft | 474 kts | 109° |
| 2026-04-28 14:41 | 43.77055 | 11.18532 | 37047 ft | 474 kts | 109° |
| 2026-04-28 14:42 | 43.75281 | 11.25705 | 37049 ft | 474 kts | 109° |
| 2026-04-28 14:42 | 43.73144 | 11.34323 | 37046 ft | 474 kts | 109° |
| 2026-04-28 14:43 | 43.70984 | 11.42985 | 37043 ft | 473 kts | 109° |
| 2026-04-28 14:43 | 43.68830 | 11.51583 | 37043 ft | 473 kts | 109° |
| 2026-04-28 14:44 | 43.66678 | 11.60165 | 37037 ft | 473 kts | 109° |
| 2026-04-28 14:44 | 43.64514 | 11.68749 | 37041 ft | 473 kts | 109° |
| 2026-04-28 14:45 | 43.62348 | 11.77312 | 37039 ft | 473 kts | 109° |
| 2026-04-28 14:45 | 43.60179 | 11.85884 | 37045 ft | 473 kts | 109° |
| 2026-04-28 14:46 | 43.58006 | 11.94440 | 37047 ft | 473 kts | 109° |
| 2026-04-28 14:46 | 43.55825 | 12.02985 | 37044 ft | 472 kts | 109° |
| 2026-04-28 14:47 | 43.53633 | 12.11528 | 37040 ft | 472 kts | 109° |
| 2026-04-28 14:47 | 43.51441 | 12.20061 | 37042 ft | 472 kts | 109° |
| 2026-04-28 14:48 | 43.49239 | 12.28571 | 37043 ft | 472 kts | 109° |
| 2026-04-28 14:48 | 43.47029 | 12.37086 | 37038 ft | 472 kts | 109° |
| 2026-04-28 14:49 | 43.44818 | 12.45591 | 37035 ft | 472 kts | 109° |
| 2026-04-28 14:49 | 43.42599 | 12.54087 | 37036 ft | 472 kts | 109° |
| 2026-04-28 14:50 | 43.40375 | 12.62580 | 37035 ft | 472 kts | 109° |
| 2026-04-28 14:50 | 43.38130 | 12.71118 | 37041 ft | 472 kts | 110° |
| 2026-04-28 14:51 | 43.35899 | 12.79588 | 37031 ft | 471 kts | 110° |
| 2026-04-28 14:51 | 43.33663 | 12.88049 | 37038 ft | 472 kts | 110° |
| 2026-04-28 14:52 | 43.31416 | 12.96519 | 37041 ft | 471 kts | 110° |
| 2026-04-28 14:52 | 43.29164 | 13.04967 | 37044 ft | 472 kts | 109° |
| 2026-04-28 14:53 | 43.27191 | 13.13553 | 37046 ft | 471 kts | 105° |
| 2026-04-28 14:53 | 43.25466 | 13.22219 | 37051 ft | 471 kts | 105° |
| 2026-04-28 14:54 | 43.23691 | 13.30864 | 37046 ft | 471 kts | 106° |
| 2026-04-28 14:54 | 43.21818 | 13.39472 | 37044 ft | 471 kts | 106° |
| 2026-04-28 14:55 | 43.19923 | 13.48054 | 37048 ft | 471 kts | 106° |
| 2026-04-28 14:55 | 43.18035 | 13.56670 | 37050 ft | 471 kts | 106° |
| 2026-04-28 14:56 | 43.16149 | 13.65268 | 37050 ft | 471 kts | 106° |
| 2026-04-28 14:56 | 43.14263 | 13.73820 | 37051 ft | 471 kts | 106° |
| 2026-04-28 14:57 | 43.12339 | 13.82508 | 37053 ft | 472 kts | 106° |
| 2026-04-28 14:57 | 43.10433 | 13.91095 | 37051 ft | 472 kts | 106° |
| 2026-04-28 14:58 | 43.08521 | 13.99675 | 37053 ft | 472 kts | 107° |
| 2026-04-28 14:58 | 43.06599 | 14.08256 | 37048 ft | 472 kts | 107° |
| 2026-04-28 14:59 | 43.04671 | 14.16835 | 37048 ft | 472 kts | 107° |
| 2026-04-28 14:59 | 43.02737 | 14.25405 | 37057 ft | 472 kts | 107° |
| 2026-04-28 15:00 | 43.00797 | 14.33969 | 37051 ft | 472 kts | 107° |
| 2026-04-28 15:00 | 42.98847 | 14.42537 | 37047 ft | 472 kts | 107° |
| 2026-04-28 15:01 | 42.96894 | 14.51098 | 37051 ft | 473 kts | 107° |
| 2026-04-28 15:01 | 42.94927 | 14.59668 | 37054 ft | 473 kts | 107° |
| 2026-04-28 15:02 | 42.92957 | 14.68232 | 37057 ft | 473 kts | 107° |
| 2026-04-28 15:02 | 42.90981 | 14.76782 | 37053 ft | 473 kts | 107° |
| 2026-04-28 15:03 | 42.88992 | 14.85338 | 37056 ft | 473 kts | 107° |
| 2026-04-28 15:03 | 42.87000 | 14.93885 | 37058 ft | 473 kts | 107° |
| 2026-04-28 15:04 | 42.85008 | 15.02437 | 37057 ft | 473 kts | 107° |
| 2026-04-28 15:04 | 42.83005 | 15.10988 | 37057 ft | 474 kts | 107° |
| 2026-04-28 15:05 | 42.80977 | 15.19585 | 37058 ft | 474 kts | 107° |
| 2026-04-28 15:05 | 42.78955 | 15.28122 | 37059 ft | 474 kts | 107° |
| 2026-04-28 15:06 | 42.76927 | 15.36653 | 37059 ft | 474 kts | 107° |
| 2026-04-28 15:06 | 42.74897 | 15.45188 | 37060 ft | 474 kts | 107° |
| 2026-04-28 15:07 | 42.72863 | 15.53721 | 37061 ft | 474 kts | 107° |
| 2026-04-28 15:07 | 42.70815 | 15.62241 | 37065 ft | 474 kts | 108° |
| 2026-04-28 15:08 | 42.68759 | 15.70758 | 37065 ft | 474 kts | 108° |
| 2026-04-28 15:08 | 42.66702 | 15.79275 | 37061 ft | 474 kts | 108° |
| 2026-04-28 15:09 | 42.64637 | 15.87785 | 37069 ft | 475 kts | 108° |
| 2026-04-28 15:09 | 42.62562 | 15.96298 | 37068 ft | 475 kts | 108° |
| 2026-04-28 15:10 | 42.60489 | 16.04799 | 37073 ft | 475 kts | 108° |
| 2026-04-28 15:10 | 42.58394 | 16.13329 | 37072 ft | 476 kts | 108° |
| 2026-04-28 15:11 | 42.56296 | 16.21836 | 37072 ft | 476 kts | 108° |
| 2026-04-28 15:11 | 42.54188 | 16.30346 | 37078 ft | 476 kts | 108° |
| 2026-04-28 15:12 | 42.52066 | 16.38894 | 37074 ft | 476 kts | 108° |
| 2026-04-28 15:12 | 42.49952 | 16.47386 | 37071 ft | 476 kts | 108° |
| 2026-04-28 15:13 | 42.47827 | 16.55879 | 37078 ft | 476 kts | 108° |
| 2026-04-28 15:13 | 42.45703 | 16.64358 | 37081 ft | 476 kts | 108° |
| 2026-04-28 15:14 | 42.43568 | 16.72840 | 37079 ft | 476 kts | 108° |
| 2026-04-28 15:14 | 42.41428 | 16.81304 | 37079 ft | 476 kts | 108° |
| 2026-04-28 15:15 | 42.39640 | 16.88344 | 37077 ft | 476 kts | 108° |
| 2026-04-28 15:15 | 42.37484 | 16.96804 | 37076 ft | 476 kts | 108° |
| 2026-04-28 15:16 | 42.35330 | 17.05260 | 37077 ft | 475 kts | 108° |
| 2026-04-28 15:16 | 42.33160 | 17.13762 | 37079 ft | 475 kts | 108° |
| 2026-04-28 15:17 | 42.30989 | 17.22192 | 37076 ft | 475 kts | 108° |
| 2026-04-28 15:17 | 42.28811 | 17.30623 | 37073 ft | 475 kts | 108° |
| 2026-04-28 15:18 | 42.26632 | 17.39046 | 37075 ft | 475 kts | 108° |
| 2026-04-28 15:18 | 42.24446 | 17.47453 | 37095 ft | 474 kts | 109° |
| 2026-04-28 15:19 | 42.22262 | 17.55812 | 37093 ft | 472 kts | 109° |
| 2026-04-28 15:19 | 42.20085 | 17.64147 | 37089 ft | 471 kts | 108° |
| 2026-04-28 15:20 | 42.17906 | 17.72478 | 37092 ft | 470 kts | 109° |
| 2026-04-28 15:20 | 42.15713 | 17.80779 | 37088 ft | 470 kts | 109° |
| 2026-04-28 15:21 | 42.13516 | 17.89068 | 37082 ft | 470 kts | 109° |
| 2026-04-28 15:21 | 42.11322 | 17.97357 | 36771 ft | 472 kts | 109° |
| 2026-04-28 15:21 | 42.10202 | 18.01584 | 35584 ft | 486 kts | 109° |
| 2026-04-28 15:22 | 42.09057 | 18.05892 | 34813 ft | 490 kts | 109° |
| 2026-04-28 15:22 | 42.07906 | 18.10203 | 34176 ft | 490 kts | 109° |
| 2026-04-28 15:22 | 42.06752 | 18.14512 | 33536 ft | 486 kts | 109° |
| 2026-04-28 15:22 | 42.05610 | 18.18760 | 32604 ft | 479 kts | 109° |
| 2026-04-28 15:23 | 42.04484 | 18.22938 | 31724 ft | 472 kts | 109° |
| 2026-04-28 15:23 | 42.03374 | 18.27050 | 30881 ft | 464 kts | 109° |
| 2026-04-28 15:23 | 42.02281 | 18.31105 | 30049 ft | 457 kts | 109° |
| 2026-04-28 15:23 | 42.01207 | 18.35088 | 29088 ft | 450 kts | 109° |
| 2026-04-28 15:24 | 42.00146 | 18.39024 | 28151 ft | 444 kts | 109° |
| 2026-04-28 15:24 | 41.99102 | 18.42891 | 27251 ft | 437 kts | 109° |
| 2026-04-28 15:24 | 41.98059 | 18.46752 | 26356 ft | 431 kts | 109° |
| 2026-04-28 15:24 | 41.97041 | 18.50521 | 25524 ft | 426 kts | 109° |
| 2026-04-28 15:25 | 41.96035 | 18.54238 | 24711 ft | 420 kts | 109° |
| 2026-04-28 15:25 | 41.95041 | 18.57901 | 23939 ft | 415 kts | 110° |
| 2026-04-28 15:25 | 41.94052 | 18.61523 | 23104 ft | 410 kts | 110° |
| 2026-04-28 15:25 | 41.93073 | 18.65096 | 22247 ft | 405 kts | 110° |
| 2026-04-28 15:26 | 41.92131 | 18.68630 | 21412 ft | 399 kts | 108° |
| 2026-04-28 15:26 | 41.91275 | 18.72151 | 20593 ft | 394 kts | 107° |
| 2026-04-28 15:26 | 41.90482 | 18.75643 | 19796 ft | 389 kts | 106° |
| 2026-04-28 15:26 | 41.89721 | 18.79094 | 19096 ft | 381 kts | 106° |
| 2026-04-28 15:27 | 41.88981 | 18.82446 | 18663 ft | 367 kts | 106° |
| 2026-04-28 15:27 | 41.88255 | 18.85670 | 18223 ft | 355 kts | 107° |
| 2026-04-28 15:27 | 41.87544 | 18.88777 | 17792 ft | 343 kts | 107° |
| 2026-04-28 15:27 | 41.86848 | 18.91783 | 17406 ft | 331 kts | 107° |
| 2026-04-28 15:28 | 41.86172 | 18.94685 | 17011 ft | 321 kts | 107° |
| 2026-04-28 15:28 | 41.85509 | 18.97511 | 16637 ft | 320 kts | 107° |
| 2026-04-28 15:28 | 41.84841 | 19.00356 | 16250 ft | 319 kts | 107° |
| 2026-04-28 15:28 | 41.84179 | 19.03180 | 15874 ft | 316 kts | 107° |
| 2026-04-28 15:29 | 41.83521 | 19.05983 | 15493 ft | 313 kts | 107° |
| 2026-04-28 15:29 | 41.82877 | 19.08717 | 15133 ft | 304 kts | 108° |
| 2026-04-28 15:29 | 41.82242 | 19.11411 | 14780 ft | 303 kts | 108° |
| 2026-04-28 15:29 | 41.81608 | 19.14108 | 14415 ft | 304 kts | 108° |
| 2026-04-28 15:30 | 41.80972 | 19.16817 | 14051 ft | 306 kts | 108° |
| 2026-04-28 15:30 | 41.80330 | 19.19544 | 13657 ft | 307 kts | 108° |
| 2026-04-28 15:30 | 41.79687 | 19.22266 | 13282 ft | 307 kts | 108° |
| 2026-04-28 15:30 | 41.79042 | 19.24992 | 12919 ft | 306 kts | 108° |
| 2026-04-28 15:31 | 41.78398 | 19.27713 | 12544 ft | 306 kts | 108° |
| 2026-04-28 15:31 | 41.77697 | 19.30403 | 12171 ft | 305 kts | 115° |
| 2026-04-28 15:31 | 41.76621 | 19.32853 | 11632 ft | 310 kts | 128° |
| 2026-04-28 15:31 | 41.75231 | 19.35066 | 11320 ft | 307 kts | 131° |
| 2026-04-28 15:32 | 41.73860 | 19.37235 | 11046 ft | 303 kts | 131° |
| 2026-04-28 15:32 | 41.72508 | 19.39390 | 10740 ft | 301 kts | 130° |
| 2026-04-28 15:32 | 41.71169 | 19.41527 | 10436 ft | 298 kts | 130° |
| 2026-04-28 15:32 | 41.69823 | 19.43675 | 10130 ft | 296 kts | 130° |
| 2026-04-28 15:33 | 41.68503 | 19.45776 | 9823 ft | 294 kts | 130° |
| 2026-04-28 15:33 | 41.67194 | 19.47863 | 9472 ft | 292 kts | 130° |
| 2026-04-28 15:33 | 41.65895 | 19.49937 | 9115 ft | 291 kts | 130° |
| 2026-04-28 15:33 | 41.64712 | 19.52124 | 8749 ft | 291 kts | 117° |
| 2026-04-28 15:34 | 41.64057 | 19.54637 | 8545 ft | 285 kts | 101° |
| 2026-04-28 15:34 | 41.63962 | 19.57330 | 7776 ft | 300 kts | 84° |
| 2026-04-28 15:34 | 41.64190 | 19.60189 | 6979 ft | 316 kts | 84° |
| 2026-04-28 15:34 | 41.64427 | 19.63171 | 6140 ft | 330 kts | 84° |
| 2026-04-28 15:35 | 41.64566 | 19.66283 | 5240 ft | 342 kts | 95° |
| 2026-04-28 15:35 | 41.62050 | 19.71463 | 3983 ft | 343 kts | 153° |
| 2026-04-28 15:35 | 41.59822 | 19.72286 | 3515 ft | 322 kts | 179° |
| 2026-04-28 15:36 | 41.57699 | 19.72125 | 3103 ft | 291 kts | 190° |
| 2026-04-28 15:36 | 41.55779 | 19.71710 | 2759 ft | 269 kts | 191° |
| 2026-04-28 15:36 | 41.54010 | 19.71235 | 2335 ft | 251 kts | 195° |
| 2026-04-28 15:36 | 41.52400 | 19.70808 | 1981 ft | 221 kts | 187° |
| 2026-04-28 15:37 | 41.50922 | 19.70807 | 1737 ft | 207 kts | 177° |
| 2026-04-28 15:37 | 41.49547 | 19.70979 | 1494 ft | 190 kts | 176° |
| 2026-04-28 15:37 | 41.48296 | 19.71149 | 1243 ft | 170 kts | 177° |
| 2026-04-28 15:37 | 41.47533 | 19.71251 | 1096 ft | 159 kts | 177° |
| 2026-04-28 15:38 | 41.46176 | 19.71432 | 822 ft | 144 kts | 176° |
| 2026-04-28 15:38 | 41.45174 | 19.71565 | 644 ft | 141 kts | 177° |
| 2026-04-28 15:38 | 41.44203 | 19.71690 | 465 ft | 141 kts | 177° |
| 2026-04-28 15:38 | 41.43228 | 19.71824 | 279 ft | 140 kts | 178° |
| 2026-04-28 15:39 | 41.42268 | 19.71950 | 119 ft | 129 kts | 175° |
| 2026-04-28 15:39 | 41.41578 | 19.72043 | 126 ft | 73 kts | 174° |
| 2026-04-28 15:39 | 41.41204 | 19.72098 | 127 ft | 41 kts | 176° |
| 2026-04-28 15:39 | 41.40931 | 19.72128 | 133 ft | 38 kts | 175° |
| 2026-04-28 15:40 | 41.40714 | 19.72154 | 134 ft | 18 kts | 179° |
| 2026-04-28 15:40 | 41.40671 | 19.72056 | 132 ft | 15 kts | 257° |
| 2026-04-28 15:40 | 41.40646 | 19.71909 | 132 ft | 18 kts | 257° |
| 2026-04-28 15:40 | 41.40661 | 19.71774 | 132 ft | 13 kts | 353° |
| 2026-04-28 15:41 | 41.40769 | 19.71756 | 132 ft | 19 kts | 350° |
| 2026-04-28 15:41 | 41.40910 | 19.71723 | 127 ft | 22 kts | 349° |
| 2026-04-28 15:41 | 41.41070 | 19.71697 | 127 ft | 25 kts | 354° |
| 2026-04-28 15:41 | 41.41250 | 19.71669 | 127 ft | 27 kts | 354° |
| 2026-04-28 15:42 | 41.41447 | 19.71643 | 128 ft | 30 kts | 354° |
| 2026-04-28 15:42 | 41.41663 | 19.71615 | 126 ft | 31 kts | 355° |
| 2026-04-28 15:42 | 41.41783 | 19.71602 | 122 ft | 13 kts | 355° |
| 2026-04-28 15:42 | 41.41861 | 19.71593 | 120 ft | 9 kts | 354° |
| 2026-04-28 15:43 | 41.41931 | 19.71583 | 122 ft | 10 kts | 354° |
| 2026-04-28 15:43 | 41.41969 | 19.71578 | 122 ft | 8 kts | 352° |
| 2026-04-28 15:43 | 41.41989 | 19.71515 | 119 ft | 3 kts | 263° |
| 2026-04-28 15:43 | 41.41988 | 19.71509 | 119 ft | 0 kts | 263° |